createdAt,value
2022-09-06T00:00:17.002Z,100252.13
2022-09-06T00:02:44.149Z,100247.50
2022-09-06T00:05:11.835Z,100239.28
2022-09-06T00:07:38.867Z,100234.66
2022-09-06T00:10:06.533Z,100220.81
2022-09-06T00:12:33.506Z,100206.88
2022-09-06T00:15:00.097Z,100190.97
2022-09-06T00:17:26.693Z,100178.44
2022-09-06T00:19:53.230Z,100165.91
2022-09-06T00:22:19.830Z,100152.75
2022-09-06T00:24:46.340Z,100153.19
2022-09-06T00:27:12.916Z,100140.31
2022-09-06T00:29:39.674Z,100134.28
2022-09-06T00:32:06.302Z,100126.97
2022-09-06T00:34:32.802Z,100120.44
2022-09-06T00:36:59.550Z,100117.13
2022-09-06T00:39:26.125Z,100112.34
2022-09-06T00:41:52.763Z,100119.47
2022-09-06T00:44:19.426Z,100111.22
2022-09-06T00:46:48.145Z,100099.97
2022-09-06T00:49:24.276Z,100101.06
2022-09-06T00:51:58.672Z,100091.53
2022-09-06T00:54:25.925Z,100096.94
2022-09-06T00:56:52.594Z,100099.31
2022-09-06T00:59:19.197Z,100105.19
2022-09-06T01:01:45.881Z,100112.97
2022-09-06T01:04:13.093Z,100116.47
2022-09-06T01:07:06.133Z,100114.53
2022-09-06T01:10:01.968Z,100107.91
2022-09-06T01:12:47.185Z,100112.50
2022-09-06T01:15:32.041Z,100106.31
2022-09-06T01:18:10.542Z,100108.19
2022-09-06T01:20:43.106Z,100105.78
2022-09-06T01:23:20.365Z,100110.88
2022-09-06T01:25:59.936Z,100111.81
2022-09-06T01:28:43.844Z,100116.09
2022-09-06T01:31:13.465Z,100120.34
2022-09-06T01:34:14.298Z,100123.03
2022-09-06T01:37:08.847Z,100133.84
2022-09-06T01:39:37.318Z,100121.97
2022-09-06T01:42:28.598Z,100126.53
2022-09-06T01:45:09.389Z,100134.63
2022-09-06T01:47:44.854Z,100144.31
2022-09-06T01:50:33.141Z,100147.47
2022-09-06T01:53:05.546Z,100139.03
2022-09-06T01:55:50.046Z,100145.25
2022-09-06T01:58:42.803Z,100145.41
2022-09-06T02:01:21.293Z,100137.16
2022-09-06T02:03:52.461Z,100137.00
2022-09-06T02:06:26.714Z,100135.09
2022-09-06T02:09:04.510Z,100139.53
2022-09-06T02:11:48.059Z,100141.59
2022-09-06T02:14:40.258Z,100141.44
2022-09-06T02:17:11.691Z,100129.38
2022-09-06T02:19:54.761Z,100125.44
2022-09-06T02:22:27.338Z,100122.06
2022-09-06T02:24:55.617Z,100121.88
2022-09-06T02:27:22.369Z,100117.75
2022-09-06T02:29:49.034Z,100124.91
2022-09-06T02:32:22.183Z,100124.53
2022-09-06T02:34:54.354Z,100117.41
2022-09-06T02:37:21.173Z,100119.16
2022-09-06T02:39:47.732Z,100123.94
2022-09-06T02:42:15.745Z,100121.53
2022-09-06T02:44:42.238Z,100118.19
2022-09-06T02:47:09.040Z,100125.78
2022-09-06T02:49:35.804Z,100108.63
2022-09-06T02:52:02.479Z,100112.63
2022-09-06T02:54:28.987Z,100109.25
2022-09-06T02:56:55.582Z,100110.34
2022-09-06T02:59:22.131Z,100103.19
2022-09-06T03:01:48.649Z,100098.53
2022-09-06T03:04:15.486Z,100091.25
2022-09-06T03:06:41.992Z,100086.38
2022-09-06T03:09:10.412Z,100085.88
2022-09-06T03:11:38.103Z,100085.69
2022-09-06T03:14:04.863Z,100081.63
2022-09-06T03:16:31.482Z,100083.53
2022-09-06T03:18:58.082Z,100086.06
2022-09-06T03:21:24.783Z,100089.88
2022-09-06T03:23:51.339Z,100098.28
2022-09-06T03:26:17.865Z,100093.19
2022-09-06T03:28:44.355Z,100095.41
2022-09-06T03:31:11.217Z,100098.28
2022-09-06T03:33:37.940Z,100099.31
2022-09-06T03:36:04.597Z,100098.22
2022-09-06T03:38:31.154Z,100104.13
2022-09-06T03:40:58.008Z,100101.88
2022-09-06T03:43:25.819Z,100109.78
2022-09-06T03:45:54.780Z,100100.44
2022-09-06T03:48:22.800Z,100103.13
2022-09-06T03:50:52.269Z,100100.91
2022-09-06T03:53:19.033Z,100100.09
2022-09-06T03:55:51.004Z,100106.63
2022-09-06T03:58:19.573Z,100106.19
2022-09-06T04:00:46.187Z,100099.81
2022-09-06T04:03:13.569Z,100103.94
2022-09-06T04:05:40.553Z,100110.44
2022-09-06T04:08:07.074Z,100116.13
2022-09-06T04:10:33.940Z,100105.22
2022-09-06T04:13:00.503Z,100105.03
2022-09-06T04:15:27.009Z,100101.50
2022-09-06T04:17:53.764Z,100082.34
2022-09-06T04:20:20.276Z,100076.53
2022-09-06T04:22:46.783Z,100076.19
2022-09-06T04:25:13.923Z,100075.22
2022-09-06T04:27:40.535Z,100072.50
2022-09-06T04:30:07.985Z,100071.41
2022-09-06T04:32:34.600Z,100074.03
2022-09-06T04:35:01.113Z,100075.59
2022-09-06T04:37:27.603Z,100073.06
2022-09-06T04:39:54.285Z,100069.88
2022-09-06T04:42:20.870Z,100067.69
2022-09-06T04:44:47.360Z,100055.00
2022-09-06T04:47:15.879Z,100059.88
2022-09-06T04:49:42.891Z,100057.97
2022-09-06T04:52:10.342Z,100061.44
2022-09-06T04:54:37.050Z,100066.19
2022-09-06T04:57:03.930Z,100060.00
2022-09-06T04:59:30.558Z,100057.38
2022-09-06T05:01:57.280Z,100048.84
2022-09-06T05:04:24.073Z,100050.41
2022-09-06T05:06:50.807Z,100048.22
2022-09-06T05:09:17.324Z,100054.69
2022-09-06T05:11:43.842Z,100061.81
2022-09-06T05:14:10.339Z,100063.91
2022-09-06T05:16:37.048Z,100069.50
2022-09-06T05:19:03.600Z,100069.94
2022-09-06T05:21:30.245Z,100072.19
2022-09-06T05:23:58.861Z,100064.00
2022-09-06T05:26:25.720Z,100067.66
2022-09-06T05:28:52.256Z,100067.00
2022-09-06T05:31:28.458Z,100077.16
2022-09-06T05:33:56.148Z,100073.50
2022-09-06T05:36:23.597Z,100071.75
2022-09-06T05:38:51.449Z,100078.44
2022-09-06T05:41:18.286Z,100083.34
2022-09-06T05:43:45.108Z,100080.81
2022-09-06T05:46:12.259Z,100074.78
2022-09-06T05:48:39.312Z,100061.97
2022-09-06T05:51:08.992Z,100052.94
2022-09-06T05:53:37.327Z,100052.88
2022-09-06T05:56:05.378Z,100046.88
2022-09-06T05:58:32.534Z,100051.31
2022-09-06T06:01:16.058Z,100053.38
2022-09-06T06:03:43.489Z,100062.13
2022-09-06T06:06:10.137Z,100065.28
2022-09-06T06:08:36.650Z,100059.88
2022-09-06T06:11:03.232Z,100048.19
2022-09-06T06:13:29.960Z,100046.28
2022-09-06T06:15:56.711Z,100039.59
2022-09-06T06:18:23.405Z,100041.53
2022-09-06T06:20:49.995Z,100043.28
2022-09-06T06:23:16.850Z,100045.50
2022-09-06T06:25:43.374Z,100045.97
2022-09-06T06:28:10.019Z,100044.22
2022-09-06T06:30:36.575Z,100039.00
2022-09-06T06:33:03.131Z,100041.25
2022-09-06T06:35:29.652Z,100037.25
2022-09-06T06:37:56.447Z,100039.50
2022-09-06T06:40:22.970Z,100036.63
2022-09-06T06:42:49.527Z,100036.81
2022-09-06T06:45:16.173Z,100032.03
2022-09-06T06:47:42.762Z,100029.97
2022-09-06T06:50:09.735Z,100027.59
2022-09-06T06:52:36.290Z,100035.69
2022-09-06T06:55:02.826Z,100035.53
2022-09-06T06:57:29.386Z,100027.59
2022-09-06T06:59:55.893Z,100016.34
2022-09-06T07:02:22.460Z,100019.03
2022-09-06T07:04:49.048Z,100017.97
2022-09-06T07:07:32.852Z,100012.84
2022-09-06T07:12:48.034Z,100009.84
2022-09-06T07:15:14.610Z,100009.88
2022-09-06T07:17:41.097Z,100017.47
2022-09-06T07:20:15.969Z,100015.88
2022-09-06T07:22:43.081Z,100007.63
2022-09-06T07:25:12.183Z,100014.31
2022-09-06T07:27:48.064Z,100016.53
2022-09-06T07:30:15.698Z,100014.84
2022-09-06T07:32:42.289Z,100013.31
2022-09-06T07:35:09.224Z,100004.47
2022-09-06T07:37:35.726Z,99995.72
2022-09-06T07:40:03.537Z,100008.31
2022-09-06T07:42:35.611Z,100005.53
2022-09-06T07:45:04.259Z,99993.31
2022-09-06T07:53:11.331Z,100001.53
2022-09-06T07:55:42.432Z,99995.53
2022-09-06T07:58:08.933Z,100010.66
2022-09-06T08:00:35.524Z,100005.88
2022-09-06T08:03:02.162Z,100008.34
2022-09-06T08:11:02.212Z,99994.63
2022-09-06T08:13:28.913Z,100001.44
2022-09-06T08:16:00.387Z,99998.31
2022-09-06T08:18:27.983Z,100000.53
2022-09-06T08:20:55.246Z,100002.31
2022-09-06T08:23:22.101Z,100009.00
2022-09-06T08:25:58.567Z,100006.81
2022-09-06T08:28:28.814Z,100008.78
2022-09-06T08:30:56.015Z,100006.59
2022-09-06T08:33:25.541Z,100006.16
2022-09-06T08:35:58.335Z,100011.75
2022-09-06T08:38:25.230Z,99999.53
2022-09-06T08:40:54.117Z,100002.53
2022-09-06T08:43:22.766Z,99997.81
2022-09-06T08:45:56.250Z,99999.19
2022-09-06T08:48:27.365Z,99997.66
2022-09-06T08:51:38.354Z,100002.19
2022-09-06T08:54:16.525Z,99997.34
2022-09-06T08:57:00.626Z,99997.03
2022-09-06T08:59:29.294Z,100001.72
2022-09-06T09:01:55.762Z,99993.25
2022-09-06T09:04:26.486Z,99987.34
2022-09-06T09:06:59.499Z,99985.47
2022-09-06T09:09:30.309Z,99984.31
2022-09-06T09:11:58.455Z,99980.53
2022-09-06T09:14:28.951Z,99988.00
2022-09-06T09:17:03.458Z,99986.41
2022-09-06T09:19:33.457Z,99989.56
2022-09-06T09:22:00.203Z,99991.50
2022-09-06T09:24:26.898Z,99995.91
2022-09-06T09:27:06.733Z,99995.19
2022-09-06T09:29:36.367Z,100004.50
2022-09-06T09:32:03.458Z,100002.66
2022-09-06T09:34:35.874Z,100005.06
2022-09-06T09:40:13.064Z,100006.97
2022-09-06T09:42:40.422Z,100004.81
2022-09-06T09:45:24.438Z,99993.91
2022-09-06T09:47:51.073Z,99990.34
2022-09-06T09:50:33.639Z,99995.69
2022-09-06T09:53:12.630Z,99992.13
2022-09-06T09:55:40.150Z,99994.78
2022-09-06T09:58:17.421Z,99990.91
2022-09-06T10:00:44.250Z,99993.06
2022-09-06T10:03:17.454Z,99987.81
2022-09-06T10:06:02.213Z,99980.00
2022-09-06T10:08:33.377Z,99983.16
2022-09-06T10:11:00.994Z,99978.06
2022-09-06T10:13:29.735Z,99979.69
2022-09-06T10:15:58.884Z,99977.16
2022-09-06T10:18:35.381Z,99970.28
2022-09-06T10:21:22.320Z,99972.00
2022-09-06T10:24:27.805Z,99969.22
2022-09-06T10:27:02.477Z,99968.47
2022-09-06T10:29:53.125Z,99973.63
2022-09-06T10:32:38.667Z,99971.22
2022-09-06T10:35:29.970Z,99978.41
2022-09-06T10:38:11.444Z,99968.66
2022-09-06T10:40:49.214Z,99958.88
2022-09-06T10:43:20.425Z,99955.22
2022-09-06T10:45:57.795Z,99943.47
2022-09-06T10:48:33.501Z,99957.78
2022-09-06T10:51:18.654Z,99963.19
2022-09-06T10:53:48.472Z,99961.59
2022-09-06T10:56:29.031Z,99963.38
2022-09-06T11:02:13.455Z,99955.41
2022-09-06T11:07:34.631Z,99962.81
2022-09-06T11:10:10.606Z,99963.72
2022-09-06T11:12:55.742Z,99958.66
2022-09-06T11:15:26.090Z,99963.28
2022-09-06T11:17:59.536Z,99965.22
2022-09-06T11:20:35.954Z,99960.34
2022-09-06T11:23:37.022Z,99961.19
2022-09-06T11:26:20.752Z,99957.31
2022-09-06T11:28:59.290Z,99962.28
2022-09-06T11:34:27.913Z,99946.22
2022-09-06T11:37:08.923Z,99942.22
2022-09-06T11:43:01.070Z,99927.84
2022-09-06T11:45:47.013Z,99921.69
2022-09-06T11:48:34.256Z,99924.47
2022-09-06T11:51:11.187Z,99916.25
2022-09-06T11:53:49.922Z,99915.94
2022-09-06T11:56:33.742Z,99915.38
2022-09-06T11:59:11.239Z,99916.00
2022-09-06T12:01:39.051Z,99916.53
2022-09-06T12:04:08.317Z,99918.78
2022-09-06T12:06:35.677Z,99911.41
2022-09-06T12:09:22.688Z,99912.28
2022-09-06T12:11:49.453Z,99902.84
2022-09-06T12:14:52.108Z,99897.00
2022-09-06T12:17:20.532Z,99884.34
2022-09-06T12:19:59.526Z,99881.91
2022-09-06T12:22:40.234Z,99879.72
2022-09-06T12:25:16.699Z,99867.44
2022-09-06T12:27:58.162Z,99861.31
2022-09-06T12:30:43.719Z,99867.69
2022-09-06T12:33:25.342Z,99872.47
2022-09-06T12:38:25.641Z,99865.44
2022-09-06T12:40:56.484Z,99860.75
2022-09-06T12:43:23.033Z,99864.50
2022-09-06T12:45:52.333Z,99858.88
2022-09-06T12:48:35.325Z,99856.97
2022-09-06T12:51:07.480Z,99864.69
2022-09-06T12:53:34.956Z,99851.78
2022-09-06T12:56:10.127Z,99851.69
2022-09-06T12:58:37.407Z,99837.13
2022-09-06T13:01:17.088Z,99841.75
2022-09-06T13:03:55.716Z,99836.31
2022-09-06T13:06:27.274Z,99831.69
2022-09-06T13:08:57.198Z,99828.59
2022-09-06T13:11:39.354Z,99831.38
2022-09-06T13:14:19.367Z,99826.44
2022-09-06T13:16:48.726Z,99829.81
2022-09-06T13:19:42.520Z,99821.50
2022-09-06T13:22:13.549Z,99811.69
2022-09-06T13:24:47.153Z,99792.09
2022-09-06T13:27:36.706Z,99796.03
2022-09-06T13:30:09.119Z,99788.94
2022-09-06T13:32:37.333Z,99788.22
2022-09-06T13:35:04.660Z,99796.09
2022-09-06T13:37:35.629Z,99802.53
2022-09-06T13:40:05.736Z,99804.63
2022-09-06T13:42:37.239Z,99815.28
2022-09-06T13:45:31.699Z,99813.22
2022-09-06T13:48:13.201Z,99810.09
2022-09-06T13:50:44.678Z,99800.09
2022-09-06T13:53:11.218Z,99801.31
2022-09-06T13:55:37.878Z,99805.56
2022-09-06T13:58:04.394Z,99798.53
2022-09-06T14:00:31.218Z,99772.53
2022-09-06T14:02:58.943Z,99765.88
2022-09-06T14:05:25.717Z,99809.69
2022-09-06T14:07:52.242Z,99765.91
2022-09-06T14:10:21.354Z,99787.84
2022-09-06T14:12:47.968Z,99790.38
2022-09-06T14:15:14.651Z,99763.41
2022-09-06T14:17:41.264Z,99784.19
2022-09-06T14:20:08.850Z,99774.09
2022-09-06T14:22:35.405Z,99776.22
2022-09-06T14:25:01.957Z,99771.06
2022-09-06T14:27:28.558Z,99764.59
2022-09-06T14:29:55.099Z,99748.31
2022-09-06T14:32:22.672Z,99749.44
2022-09-06T14:34:49.544Z,99752.47
2022-09-06T14:37:16.133Z,99760.34
2022-09-06T14:39:42.748Z,99734.06
2022-09-06T14:42:09.324Z,99727.38
2022-09-06T14:44:35.903Z,99736.50
2022-09-06T14:47:03.391Z,99731.31
2022-09-06T14:49:29.913Z,99730.50
2022-09-06T14:51:56.578Z,99734.97
2022-09-06T14:54:26.197Z,99729.53
2022-09-06T14:56:56.501Z,99726.16
2022-09-06T14:59:23.036Z,99725.59
2022-09-06T15:01:49.666Z,99712.38
2022-09-06T15:04:16.621Z,99709.16
2022-09-06T15:06:47.093Z,99715.88
2022-09-06T15:09:15.885Z,99703.00
2022-09-06T15:11:45.171Z,99699.78
2022-09-06T15:14:17.398Z,99694.97
2022-09-06T15:16:45.755Z,99687.09
2022-09-06T15:19:12.967Z,99685.94
2022-09-06T15:21:40.068Z,99690.59
2022-09-06T15:24:11.529Z,99693.41
2022-09-06T15:26:38.950Z,99686.34
2022-09-06T15:29:05.455Z,99674.13
2022-09-06T15:31:34.301Z,99670.44
2022-09-06T15:34:02.739Z,99675.69
2022-09-06T15:36:29.921Z,99669.56
2022-09-06T15:39:01.031Z,99671.78
2022-09-06T15:41:30.223Z,99665.34
2022-09-06T15:43:59.293Z,99675.53
2022-09-06T15:46:34.754Z,99667.06
2022-09-06T15:49:05.730Z,99664.63
2022-09-06T15:51:35.117Z,99665.09
2022-09-06T15:54:01.644Z,99669.63
2022-09-06T15:56:28.259Z,99670.19
2022-09-06T15:58:54.771Z,99664.59
2022-09-06T16:01:23.778Z,99662.91
2022-09-06T16:03:53.725Z,99665.47
2022-09-06T16:09:02.743Z,99664.78
2022-09-06T16:11:30.265Z,99661.09
2022-09-06T16:13:57.052Z,99646.66
2022-09-06T16:16:23.932Z,99640.00
2022-09-06T16:18:52.266Z,99650.25
2022-09-06T16:21:25.098Z,99648.03
2022-09-06T16:23:53.884Z,99648.22
2022-09-06T16:26:22.053Z,99633.44
2022-09-06T16:28:50.806Z,99645.25
2022-09-06T16:31:18.707Z,99646.72
2022-09-06T16:33:45.807Z,99631.81
2022-09-06T16:36:13.938Z,99637.03
2022-09-06T16:38:41.391Z,99632.31
2022-09-06T16:41:09.721Z,99621.41
2022-09-06T16:43:36.406Z,99633.63
2022-09-06T16:46:04.364Z,99628.16
2022-09-06T16:48:31.205Z,99633.97
2022-09-06T16:50:58.368Z,99632.94
2022-09-06T16:53:25.106Z,99625.44
2022-09-06T16:55:51.626Z,99616.34
2022-09-06T16:58:18.186Z,99620.13
2022-09-06T17:00:47.671Z,99616.09
2022-09-06T17:03:14.416Z,99612.44
2022-09-06T17:05:41.185Z,99611.06
2022-09-06T17:08:07.917Z,99613.22
2022-09-06T17:10:38.575Z,99611.22
2022-09-06T17:13:05.086Z,99613.84
2022-09-06T17:15:51.681Z,99616.94
2022-09-06T17:18:18.184Z,99617.28
2022-09-06T17:20:58.222Z,99621.91
2022-09-06T17:23:24.798Z,99626.16
2022-09-06T17:25:51.993Z,99626.13
2022-09-06T17:28:19.077Z,99617.44
2022-09-06T17:30:45.647Z,99627.03
2022-09-06T17:33:13.511Z,99630.84
2022-09-06T17:35:40.380Z,99630.97
2022-09-06T17:38:06.869Z,99631.13
2022-09-06T17:40:33.618Z,99626.59
2022-09-06T17:43:00.637Z,99636.56
2022-09-06T17:45:27.435Z,99640.91
2022-09-06T17:47:53.973Z,99637.41
2022-09-06T17:50:20.569Z,99639.16
2022-09-06T17:52:50.797Z,99632.00
2022-09-06T17:55:17.457Z,99631.22
2022-09-06T17:57:43.998Z,99628.84
2022-09-06T18:00:11.205Z,99618.84
2022-09-06T18:02:38.694Z,99617.91
2022-09-06T18:05:05.716Z,99609.25
2022-09-06T18:07:32.286Z,99609.84
2022-09-06T18:09:58.794Z,99606.47
2022-09-06T18:12:25.655Z,99613.66
2022-09-06T18:14:52.595Z,99599.91
2022-09-06T18:17:19.085Z,99600.78
2022-09-06T18:19:45.618Z,99599.31
2022-09-06T18:22:12.108Z,99604.97
2022-09-06T18:24:38.813Z,99600.03
2022-09-06T18:27:05.449Z,99603.19
2022-09-06T18:29:32.946Z,99611.41
2022-09-06T18:31:59.629Z,99614.59
2022-09-06T18:34:26.244Z,99619.69
2022-09-06T18:36:52.844Z,99617.97
2022-09-06T18:39:20.322Z,99618.06
2022-09-06T18:42:02.910Z,99614.28
2022-09-06T18:44:32.354Z,99613.59
2022-09-06T18:47:05.668Z,99606.75
2022-09-06T18:49:33.795Z,99612.47
2022-09-06T18:52:05.105Z,99608.72
2022-09-06T18:54:32.357Z,99621.69
2022-09-06T18:56:59.326Z,99623.94
2022-09-06T18:59:26.006Z,99618.09
2022-09-06T19:01:52.967Z,99613.47
2022-09-06T19:04:19.645Z,99622.13
2022-09-06T19:06:46.210Z,99629.16
2022-09-06T19:09:15.809Z,99627.38
2022-09-06T19:11:43.491Z,99625.72
2022-09-06T19:14:10.174Z,99626.38
2022-09-06T19:16:36.762Z,99629.09
2022-09-06T19:19:05.913Z,99640.41
2022-09-06T19:21:35.632Z,99646.16
2022-09-06T19:24:07.310Z,99644.88
2022-09-06T19:26:37.683Z,99645.06
2022-09-06T19:29:07.363Z,99646.53
2022-09-06T19:31:37.254Z,99655.13
2022-09-06T19:34:04.534Z,99649.59
2022-09-06T19:36:31.932Z,99654.66
2022-09-06T19:39:07.489Z,99657.63
2022-09-06T19:41:37.908Z,99651.59
2022-09-06T19:44:05.915Z,99655.97
2022-09-06T19:46:32.900Z,99641.63
2022-09-06T19:49:00.535Z,99651.13
2022-09-06T19:51:27.198Z,99647.63
2022-09-06T19:54:00.024Z,99644.03
2022-09-06T19:56:31.552Z,99648.56
2022-09-06T19:59:00.232Z,99644.09
2022-09-06T20:01:29.354Z,99650.41
2022-09-06T20:03:56.629Z,99643.41
2022-09-06T20:06:23.489Z,99643.84
2022-09-06T20:08:52.255Z,99639.59
2022-09-06T20:11:20.640Z,99644.53
2022-09-06T20:13:47.722Z,99641.84
2022-09-06T20:16:15.719Z,99645.69
2022-09-06T20:18:42.341Z,99645.16
2022-09-06T20:21:09.726Z,99645.38
2022-09-06T20:23:36.731Z,99646.78
2022-09-06T20:26:08.557Z,99645.28
2022-09-06T20:28:36.691Z,99640.22
2022-09-06T20:31:08.830Z,99644.34
2022-09-06T20:33:36.162Z,99644.53
2022-09-06T20:36:06.213Z,99644.94
2022-09-06T20:38:34.800Z,99640.75
2022-09-06T20:41:13.401Z,99645.28
2022-09-06T20:43:40.655Z,99655.69
2022-09-06T20:46:14.777Z,99642.25
2022-09-06T20:48:44.685Z,99647.56
2022-09-06T20:51:19.495Z,99648.50
2022-09-06T20:53:48.131Z,99654.69
2022-09-06T20:56:17.370Z,99648.75
2022-09-06T20:58:49.491Z,99649.16
2022-09-06T21:01:22.974Z,99648.03
2022-09-06T21:03:52.527Z,99652.56
2022-09-06T21:06:20.655Z,99642.44
2022-09-06T21:08:48.233Z,99640.50
2022-09-06T21:11:15.104Z,99640.16
2022-09-06T21:13:42.059Z,99639.13
2022-09-06T21:16:09.060Z,99644.88
2022-09-06T21:18:36.519Z,99637.78
2022-09-06T21:21:06.158Z,99631.81
2022-09-06T21:23:35.165Z,99638.22
2022-09-06T21:26:10.294Z,99637.00
2022-09-06T21:28:39.781Z,99646.13
2022-09-06T21:31:15.555Z,99643.09
2022-09-06T21:33:47.414Z,99641.06
2022-09-06T21:36:18.250Z,99644.47
2022-09-06T21:38:46.974Z,99641.00
2022-09-06T21:41:15.729Z,99638.66
2022-09-06T21:43:43.187Z,99640.88
2022-09-06T21:46:15.324Z,99638.19
2022-09-06T21:48:45.797Z,99641.78
2022-09-06T21:51:14.579Z,99633.22
2022-09-06T21:53:43.109Z,99635.56
2022-09-06T21:56:10.504Z,99631.19
2022-09-06T21:58:37.673Z,99641.78
2022-09-06T22:01:05.132Z,99649.81
2022-09-06T22:03:35.207Z,99643.38
2022-09-06T22:06:09.891Z,99640.44
2022-09-06T22:08:36.614Z,99637.41
2022-09-06T22:11:21.998Z,99641.16
2022-09-06T22:13:49.647Z,99642.03
2022-09-06T22:16:18.555Z,99644.28
2022-09-06T22:18:45.265Z,99641.16
2022-09-06T22:21:18.649Z,99637.50
2022-09-06T22:24:06.684Z,99636.06
2022-09-06T22:26:36.600Z,99629.50
2022-09-06T22:29:05.765Z,99632.22
2022-09-06T22:31:33.869Z,99629.19
2022-09-06T22:34:01.261Z,99620.38
2022-09-06T22:36:28.513Z,99625.13
2022-09-06T22:38:58.827Z,99623.53
2022-09-06T22:41:27.218Z,99612.38
2022-09-06T22:43:54.527Z,99615.88
2022-09-06T22:46:21.418Z,99610.78
2022-09-06T22:48:48.093Z,99612.69
2022-09-06T22:51:14.967Z,99615.56
2022-09-06T22:53:41.578Z,99608.16
2022-09-06T22:56:08.190Z,99608.22
2022-09-06T22:58:35.436Z,99614.75
2022-09-06T23:01:07.609Z,99600.13
2022-09-06T23:03:35.365Z,99602.72
2022-09-06T23:06:02.941Z,99603.97
2022-09-06T23:08:30.617Z,99605.63
2022-09-06T23:10:57.258Z,99599.44
2022-09-06T23:13:23.845Z,99598.22
2022-09-06T23:15:50.392Z,99597.75
2022-09-06T23:18:17.021Z,99605.72
2022-09-06T23:20:43.521Z,99600.53
2022-09-06T23:23:10.015Z,99592.41
2022-09-06T23:25:38.781Z,99608.28
2022-09-06T23:28:05.654Z,99596.81
2022-09-06T23:30:32.197Z,99602.53
2022-09-06T23:32:58.705Z,99601.63
2022-09-06T23:35:25.364Z,99599.03
2022-09-06T23:37:52.337Z,99590.06
2022-09-06T23:40:19.597Z,99599.94
2022-09-06T23:42:46.668Z,99587.03
2022-09-06T23:45:13.327Z,99588.78
2022-09-06T23:47:40.092Z,99586.72
2022-09-06T23:50:07.337Z,99589.72
2022-09-06T23:52:33.892Z,99586.41
2022-09-06T23:55:00.417Z,99594.69
2022-09-06T23:57:26.898Z,99592.94
2022-09-06T23:59:53.455Z,99595.53
